createdAt,value
2018-01-05T00:00:21.520Z,5.15
2018-01-05T00:02:50.026Z,5.37
2018-01-05T00:05:17.643Z,5.60
2018-01-05T00:07:45.297Z,4.82
2018-01-05T00:10:12.920Z,4.78
2018-01-05T00:12:40.874Z,5.50
2018-01-05T00:15:09.347Z,5.30
2018-01-05T00:17:37.057Z,4.97
2018-01-05T00:20:04.691Z,5.20
2018-01-05T00:22:32.230Z,4.80
2018-01-05T00:25:00.614Z,5.68
2018-01-05T00:27:29.112Z,6.28
2018-01-05T00:29:56.750Z,5.57
2018-01-05T00:32:24.265Z,4.97
2018-01-05T00:34:51.973Z,5.75
2018-01-05T00:37:19.632Z,5.03
2018-01-05T00:39:47.955Z,5.47
2018-01-05T00:42:15.671Z,6.03
2018-01-05T00:44:43.273Z,3.70
2018-01-05T00:47:10.954Z,4.78
2018-01-05T00:49:38.542Z,3.40
2018-01-05T00:52:06.024Z,4.30
2018-01-05T00:54:34.431Z,4.05
2018-01-05T00:57:02.116Z,4.95
2018-01-05T00:59:29.729Z,4.95
2018-01-05T01:01:58.193Z,4.00
2018-01-05T01:04:25.850Z,5.20
2018-01-05T01:06:53.510Z,4.87
2018-01-05T01:09:21.191Z,4.30
2018-01-05T01:11:48.974Z,5.07
2018-01-05T01:14:16.601Z,6.37
2018-01-05T01:16:44.338Z,4.50
2018-01-05T01:19:11.854Z,4.03
2018-01-05T01:21:40.140Z,3.65
2018-01-05T01:24:07.758Z,3.90
2018-01-05T01:26:35.434Z,4.30
2018-01-05T01:29:03.109Z,4.07
2018-01-05T01:31:31.558Z,6.68
2018-01-05T01:33:59.094Z,4.90
2018-01-05T01:36:27.297Z,5.00
2018-01-05T01:38:54.953Z,4.50
2018-01-05T01:41:22.510Z,4.72
2018-01-05T01:43:50.080Z,6.30
2018-01-05T01:46:17.671Z,4.40
2018-01-05T01:48:50.162Z,3.78
2018-01-05T01:51:17.798Z,3.87
2018-01-05T01:53:45.427Z,3.60
2018-01-05T01:56:12.982Z,5.25
2018-01-05T01:58:41.493Z,4.35
2018-01-05T02:01:09.861Z,3.85
2018-01-05T02:03:39.385Z,4.70
2018-01-05T02:06:07.037Z,4.05
2018-01-05T02:08:34.773Z,6.47
2018-01-05T02:11:02.534Z,5.10
2018-01-05T02:13:30.166Z,3.92
2018-01-05T02:15:57.801Z,5.28
2018-01-05T02:18:25.458Z,5.70
2018-01-05T02:20:54.493Z,6.20
2018-01-05T02:23:22.086Z,4.75
2018-01-05T02:25:49.771Z,5.53
2018-01-05T02:28:18.260Z,7.32
2018-01-05T02:30:46.603Z,6.50
2018-01-05T02:33:14.226Z,5.20
2018-01-05T02:35:41.874Z,5.85
2018-01-05T02:38:09.482Z,7.35
2018-01-05T02:40:37.146Z,5.70
2018-01-05T02:43:04.704Z,4.53
2018-01-05T02:45:32.404Z,6.28
2018-01-05T02:48:00.066Z,7.97
2018-01-05T02:50:28.553Z,7.05
2018-01-05T02:52:56.953Z,6.28
2018-01-05T02:55:25.532Z,6.55
2018-01-05T02:57:54.058Z,7.87
2018-01-05T03:00:21.933Z,8.70
2018-01-05T03:02:50.441Z,7.05
2018-01-05T03:05:18.034Z,6.10
2018-01-05T03:07:45.562Z,7.25
2018-01-05T03:10:13.218Z,6.45
2018-01-05T03:12:40.844Z,6.45
2018-01-05T03:15:08.511Z,5.75
2018-01-05T03:17:36.010Z,7.60
2018-01-05T03:20:04.266Z,7.03
2018-01-05T03:22:31.756Z,6.15
2018-01-05T03:25:00.180Z,6.20
2018-01-05T03:27:27.725Z,4.53
2018-01-05T03:29:56.208Z,5.72
2018-01-05T03:32:23.920Z,5.90
2018-01-05T03:34:51.551Z,5.60
2018-01-05T03:37:19.238Z,6.70
2018-01-05T03:39:46.919Z,6.00
2018-01-05T03:42:15.232Z,5.43
2018-01-05T03:44:42.949Z,5.30
2018-01-05T03:47:10.585Z,5.87
2018-01-05T03:49:38.091Z,5.03
2018-01-05T03:52:06.519Z,5.05
2018-01-05T03:54:34.112Z,5.28
2018-01-05T03:57:01.737Z,4.97
2018-01-05T03:59:29.430Z,4.10
2018-01-05T04:01:57.137Z,4.57
2018-01-05T04:04:24.759Z,5.18
2018-01-05T04:06:53.180Z,4.47
2018-01-05T04:09:21.592Z,5.32
2018-01-05T04:11:49.314Z,4.05
2018-01-05T04:14:17.782Z,3.90
2018-01-05T04:16:45.494Z,4.40
2018-01-05T04:19:13.385Z,5.25
2018-01-05T04:21:40.980Z,3.40
2018-01-05T04:24:08.637Z,3.95
2018-01-05T04:26:36.312Z,4.00
2018-01-05T04:29:03.826Z,3.80
2018-01-05T04:31:31.592Z,5.20
2018-01-05T04:33:59.251Z,3.70
2018-01-05T04:36:26.998Z,4.05
2018-01-05T04:38:55.579Z,4.30
2018-01-05T04:41:23.245Z,4.78
2018-01-05T04:43:50.886Z,4.43
2018-01-05T04:46:18.636Z,4.78
2018-01-05T04:48:46.293Z,3.92
2018-01-05T04:51:14.919Z,4.60
2018-01-05T04:53:43.330Z,4.87
2018-01-05T04:56:11.985Z,4.00
2018-01-05T04:58:39.680Z,3.15
2018-01-05T05:01:07.218Z,4.72
2018-01-05T05:03:34.739Z,5.25
2018-01-05T05:06:02.351Z,4.22
2018-01-05T05:08:29.971Z,4.43
2018-01-05T05:10:57.666Z,5.12
2018-01-05T05:13:25.211Z,3.58
2018-01-05T05:15:52.887Z,3.25
2018-01-05T05:18:20.574Z,3.87
2018-01-05T05:20:48.241Z,4.82
2018-01-05T05:23:16.596Z,4.07
2018-01-05T05:25:44.971Z,4.32
2018-01-05T05:28:12.530Z,4.78
2018-01-05T05:30:40.904Z,4.37
2018-01-05T05:33:08.926Z,3.85
2018-01-05T05:35:37.340Z,4.18
2018-01-05T05:38:05.148Z,3.95
2018-01-05T05:40:32.745Z,5.55
2018-01-05T05:43:01.062Z,3.78
2018-01-05T05:45:28.850Z,4.37
2018-01-05T05:47:57.359Z,3.42
2018-01-05T05:50:25.894Z,5.57
2018-01-05T05:52:54.324Z,5.07
2018-01-05T05:55:21.920Z,5.10
2018-01-05T05:57:49.624Z,4.03
2018-01-05T06:00:17.428Z,4.72
2018-01-05T06:02:45.341Z,3.83
2018-01-05T06:05:13.637Z,3.97
2018-01-05T06:07:41.366Z,4.50
2018-01-05T06:10:09.239Z,5.05
2018-01-05T06:12:36.743Z,4.82
2018-01-05T06:15:05.271Z,4.20
2018-01-05T06:17:32.807Z,4.97
2018-01-05T06:20:00.490Z,4.70
2018-01-05T06:22:28.971Z,6.25
2018-01-05T06:24:56.631Z,4.75
2018-01-05T06:27:24.198Z,6.03
2018-01-05T06:29:51.867Z,5.25
2018-01-05T06:32:20.236Z,4.80
2018-01-05T06:34:47.796Z,6.62
2018-01-05T06:37:15.834Z,6.82
2018-01-05T06:39:43.443Z,5.60
2018-01-05T06:42:11.096Z,5.43
2018-01-05T06:44:38.749Z,5.72
2018-01-05T06:47:07.306Z,4.65
2018-01-05T06:49:34.997Z,4.75
2018-01-05T06:52:02.526Z,4.93
2018-01-05T06:54:30.958Z,4.95
2018-01-05T06:56:59.002Z,4.50
2018-01-05T06:59:27.397Z,4.85
2018-01-05T07:01:55.178Z,4.37
2018-01-05T07:04:22.879Z,5.60
2018-01-05T07:06:50.483Z,5.45
2018-01-05T07:09:18.258Z,5.45
2018-01-05T07:11:46.630Z,5.03
2018-01-05T07:14:14.271Z,4.37
2018-01-05T07:16:41.955Z,4.10
2018-01-05T07:19:09.605Z,5.12
2018-01-05T07:21:37.271Z,4.25
2018-01-05T07:24:05.998Z,5.03
2018-01-05T07:26:33.752Z,5.30
2018-01-05T07:29:01.351Z,4.60
2018-01-05T07:31:29.555Z,4.10
2018-01-05T07:33:57.408Z,4.90
2018-01-05T07:36:24.958Z,5.20
2018-01-05T07:38:52.538Z,5.00
2018-01-05T07:41:20.069Z,4.55
2018-01-05T07:43:48.331Z,5.28
2018-01-05T07:46:16.744Z,5.62
2018-01-05T07:48:44.506Z,4.20
2018-01-05T07:51:12.861Z,4.50
2018-01-05T07:53:41.283Z,4.25
2018-01-05T07:56:08.926Z,3.58
2018-01-05T07:58:36.579Z,4.93
2018-01-05T08:01:04.937Z,5.10
2018-01-05T08:03:33.214Z,4.32
2018-01-05T08:06:01.542Z,4.53
2018-01-05T08:08:29.198Z,4.62
2018-01-05T08:10:56.841Z,4.50
2018-01-05T08:13:24.537Z,4.35
2018-01-05T08:15:52.412Z,4.62
2018-01-05T08:18:20.028Z,3.95
2018-01-05T08:20:47.534Z,4.68
2018-01-05T08:23:15.036Z,5.70
2018-01-05T08:25:43.302Z,3.62
2018-01-05T08:28:11.566Z,3.33
2018-01-05T08:30:39.098Z,4.93
2018-01-05T08:33:06.883Z,4.68
2018-01-05T08:35:34.695Z,3.30
2018-01-05T08:38:02.210Z,3.50
2018-01-05T08:40:29.837Z,3.75
2018-01-05T08:42:57.336Z,4.05
2018-01-05T08:45:24.830Z,3.87
2018-01-05T08:47:52.327Z,3.92
2018-01-05T08:50:19.974Z,4.30
2018-01-05T08:52:47.494Z,5.07
2018-01-05T08:55:15.229Z,4.47
2018-01-05T08:57:42.710Z,4.68
2018-01-05T09:00:11.203Z,4.55
2018-01-05T09:02:38.778Z,3.60
2018-01-05T09:05:06.459Z,3.50
2018-01-05T09:07:34.126Z,4.07
2018-01-05T09:10:01.642Z,5.55
2018-01-05T09:12:29.130Z,4.65
2018-01-05T09:14:57.423Z,4.55
2018-01-05T09:17:24.949Z,4.30
2018-01-05T09:19:52.570Z,4.18
2018-01-05T09:22:20.321Z,5.43
2018-01-05T09:24:47.989Z,4.87
2018-01-05T09:27:15.683Z,5.47
2018-01-05T09:29:43.218Z,4.97
2018-01-05T09:32:10.923Z,4.40
2018-01-05T09:34:38.700Z,5.47
2018-01-05T09:37:06.493Z,5.22
2018-01-05T09:39:34.816Z,4.75
2018-01-05T09:42:03.137Z,4.65
2018-01-05T09:44:30.704Z,4.75
2018-01-05T09:46:58.951Z,5.12
2018-01-05T09:49:27.383Z,5.53
2018-01-05T09:51:55.116Z,4.78
2018-01-05T09:54:22.835Z,5.12
2018-01-05T09:56:50.488Z,5.85
2018-01-05T09:59:19.027Z,5.85
2018-01-05T10:01:46.721Z,4.62
2018-01-05T10:04:14.202Z,5.65
2018-01-05T10:06:42.695Z,5.43
2018-01-05T10:09:10.182Z,5.55
2018-01-05T10:11:37.814Z,5.15
2018-01-05T10:14:05.489Z,5.35
2018-01-05T10:16:32.994Z,5.40
2018-01-05T10:19:00.483Z,4.70
2018-01-05T10:21:28.878Z,5.25
2018-01-05T10:23:56.780Z,5.32
2018-01-05T10:26:24.540Z,5.62
2018-01-05T10:28:52.305Z,6.10
2018-01-05T10:31:19.796Z,5.70
2018-01-05T10:33:47.282Z,5.85
2018-01-05T10:36:15.746Z,4.95
2018-01-05T10:38:43.462Z,5.18
2018-01-05T10:41:11.096Z,6.07
2018-01-05T10:43:38.821Z,4.75
2018-01-05T10:46:06.582Z,4.40
2018-01-05T10:48:34.249Z,4.07
2018-01-05T10:51:01.925Z,5.10
2018-01-05T10:53:29.558Z,4.45
2018-01-05T10:55:57.139Z,4.53
2018-01-05T10:58:24.806Z,4.15
2018-01-05T11:00:53.147Z,4.37
2018-01-05T11:03:20.706Z,4.45
2018-01-05T11:05:48.414Z,4.05
2018-01-05T11:08:15.948Z,5.90
2018-01-05T11:10:43.454Z,5.35
2018-01-05T11:13:10.966Z,5.30
2018-01-05T11:15:38.719Z,5.85
2018-01-05T11:18:06.300Z,4.35
2018-01-05T11:20:33.963Z,4.25
2018-01-05T11:23:01.516Z,5.10
2018-01-05T11:25:29.014Z,4.93
2018-01-05T11:27:56.539Z,4.80
2018-01-05T11:30:24.043Z,5.30
2018-01-05T11:32:51.644Z,6.47
2018-01-05T11:35:19.390Z,4.97
2018-01-05T11:37:46.897Z,4.12
2018-01-05T11:40:14.381Z,4.70
2018-01-05T11:42:41.922Z,4.43
2018-01-05T11:45:10.201Z,4.30
2018-01-05T11:47:38.578Z,4.93
2018-01-05T11:50:06.858Z,4.35
2018-01-05T11:52:34.482Z,4.75
2018-01-05T11:55:02.183Z,4.35
2018-01-05T11:57:30.616Z,5.28
2018-01-05T11:59:58.122Z,5.85
2018-01-05T12:02:25.626Z,4.25
2018-01-05T12:04:53.150Z,4.10
2018-01-05T12:07:21.057Z,5.43
2018-01-05T12:09:48.692Z,5.07
2018-01-05T12:12:16.302Z,4.20
2018-01-05T12:14:43.802Z,4.82
2018-01-05T12:17:11.300Z,4.60
2018-01-05T12:19:38.970Z,4.33
2018-01-05T12:22:07.261Z,6.45
2018-01-05T12:24:34.753Z,4.47
2018-01-05T12:27:03.310Z,4.33
2018-01-05T12:29:30.798Z,4.37
2018-01-05T12:31:58.493Z,4.70
2018-01-05T12:34:26.074Z,4.20
2018-01-05T12:36:53.661Z,4.70
2018-01-05T12:39:21.146Z,3.85
2018-01-05T12:41:48.695Z,4.75
2018-01-05T12:44:16.402Z,3.75
2018-01-05T12:46:43.909Z,5.28
2018-01-05T12:49:12.323Z,3.80
2018-01-05T12:51:39.841Z,4.45
2018-01-05T12:54:08.098Z,3.22
2018-01-05T12:56:35.711Z,4.60
2018-01-05T12:59:03.227Z,5.12
2018-01-05T13:01:30.958Z,4.50
2018-01-05T13:03:58.590Z,3.83
2018-01-05T13:06:26.218Z,4.47
2018-01-05T13:08:54.591Z,4.10
2018-01-05T13:11:22.293Z,4.57
2018-01-05T13:13:49.795Z,4.22
2018-01-05T13:16:18.062Z,4.70
2018-01-05T13:18:45.615Z,3.57
2018-01-05T13:21:13.178Z,3.20
2018-01-05T13:23:40.786Z,4.40
2018-01-05T13:26:08.330Z,4.55
2018-01-05T13:28:35.864Z,4.57
2018-01-05T13:31:03.404Z,4.43
2018-01-05T13:33:30.988Z,3.87
2018-01-05T13:35:58.504Z,4.00
2018-01-05T13:38:27.231Z,3.83
2018-01-05T13:40:54.810Z,3.65
2018-01-05T13:43:22.855Z,3.80
2018-01-05T13:45:50.424Z,3.40
2018-01-05T13:48:17.989Z,5.13
2018-01-05T13:50:45.491Z,3.60
2018-01-05T13:53:13.068Z,3.95
2018-01-05T13:55:40.608Z,4.62
2018-01-05T13:58:08.109Z,4.20
2018-01-05T14:00:35.594Z,4.32
2018-01-05T14:03:03.099Z,3.90
2018-01-05T14:05:30.597Z,4.10
2018-01-05T14:07:58.090Z,4.22
2018-01-05T14:10:26.423Z,3.95
2018-01-05T14:12:53.906Z,4.68
2018-01-05T14:15:21.529Z,3.40
2018-01-05T14:17:49.077Z,3.95
2018-01-05T14:20:16.566Z,3.45
2018-01-05T14:22:44.066Z,4.15
2018-01-05T14:25:12.682Z,4.55
2018-01-05T14:27:40.198Z,4.22
2018-01-05T14:30:07.746Z,3.78
2018-01-05T14:32:35.258Z,3.95
2018-01-05T14:35:02.761Z,4.68
2018-01-05T14:37:30.335Z,5.18
2018-01-05T14:39:57.906Z,4.07
2018-01-05T14:42:26.281Z,4.25
2018-01-05T14:44:53.853Z,5.43
2018-01-05T14:47:22.118Z,4.25
2018-01-05T14:49:50.561Z,3.08
2018-01-05T14:52:18.220Z,4.10
2018-01-05T14:54:46.687Z,5.10
2018-01-05T14:57:14.173Z,3.50
2018-01-05T14:59:41.704Z,3.95
2018-01-05T15:02:09.226Z,3.42
2018-01-05T15:04:36.764Z,4.72
2018-01-05T15:07:04.267Z,4.93
2018-01-05T15:09:31.846Z,4.65
2018-01-05T15:11:59.367Z,4.30
2018-01-05T15:14:27.625Z,4.60
2018-01-05T15:16:55.132Z,4.55
2018-01-05T15:19:22.730Z,3.55
2018-01-05T15:21:50.372Z,5.00
2018-01-05T15:24:17.881Z,4.15
2018-01-05T15:26:46.257Z,5.07
2018-01-05T15:29:14.707Z,4.85
2018-01-05T15:31:42.218Z,4.90
2018-01-05T15:34:09.744Z,4.53
2018-01-05T15:36:37.274Z,4.00
2018-01-05T15:39:04.906Z,2.45
2018-01-05T15:41:33.391Z,3.08
2018-01-05T15:44:01.220Z,2.65
2018-01-05T15:46:28.750Z,2.00
2018-01-05T15:48:56.375Z,2.00
2018-01-05T15:51:23.895Z,1.48
2018-01-05T15:53:51.386Z,1.40
2018-01-05T15:56:19.626Z,1.25
2018-01-05T15:58:47.230Z,1.55
2018-01-05T16:01:14.746Z,1.80
2018-01-05T16:03:42.377Z,1.60
2018-01-05T16:06:09.895Z,2.05
2018-01-05T16:08:38.159Z,1.65
2018-01-05T16:11:06.440Z,1.62
2018-01-05T16:13:34.834Z,1.55
2018-01-05T16:16:02.347Z,1.30
2018-01-05T16:18:29.843Z,1.73
2018-01-05T16:20:57.449Z,1.30
2018-01-05T16:23:25.734Z,1.42
2018-01-05T16:25:53.214Z,1.27
2018-01-05T16:28:20.698Z,1.10
2018-01-05T16:30:48.958Z,1.33
2018-01-05T16:33:16.546Z,1.60
2018-01-05T16:35:44.168Z,1.20
2018-01-05T16:38:11.805Z,1.00
2018-01-05T16:40:39.304Z,1.50
2018-01-05T16:43:07.507Z,1.33
2018-01-05T16:45:34.994Z,1.45
2018-01-05T16:48:02.606Z,2.78
2018-01-05T16:50:30.170Z,1.30
2018-01-05T16:52:58.537Z,1.50
2018-01-05T16:55:26.173Z,1.42
2018-01-05T16:57:53.896Z,1.90
2018-01-05T17:00:21.607Z,1.90
2018-01-05T17:02:49.094Z,1.60
2018-01-05T17:05:17.398Z,1.83
2018-01-05T17:07:44.952Z,2.10
2018-01-05T17:10:12.740Z,2.03
2018-01-05T17:12:40.248Z,2.80
2018-01-05T17:15:07.786Z,1.90
2018-01-05T17:17:35.335Z,1.70
2018-01-05T17:20:02.838Z,1.80
2018-01-05T17:22:30.451Z,2.00
2018-01-05T17:24:57.965Z,1.87
2018-01-05T17:27:25.588Z,1.70
2018-01-05T17:29:53.890Z,1.90
2018-01-05T17:32:22.281Z,3.50
2018-01-05T17:34:49.835Z,2.03
2018-01-05T17:37:18.127Z,1.87
2018-01-05T17:39:45.622Z,2.17
2018-01-05T17:42:13.102Z,2.20
2018-01-05T17:44:40.583Z,2.33
2018-01-05T17:47:08.848Z,2.20
2018-01-05T17:49:36.349Z,2.50
2018-01-05T17:52:03.843Z,2.00
2018-01-05T17:54:31.385Z,2.25
2018-01-05T17:56:58.882Z,2.03
2018-01-05T17:59:27.531Z,2.53
2018-01-05T18:01:55.014Z,2.30
2018-01-05T18:04:22.498Z,3.67
2018-01-05T18:06:51.157Z,2.08
2018-01-05T18:09:18.826Z,2.05
2018-01-05T18:11:46.302Z,2.40
2018-01-05T18:14:14.550Z,2.62
2018-01-05T18:16:42.162Z,2.67
2018-01-05T18:19:10.843Z,3.05
2018-01-05T18:21:38.314Z,3.58
2018-01-05T18:24:05.842Z,2.92
2018-01-05T18:26:33.485Z,2.60
2018-01-05T18:29:01.260Z,2.83
2018-01-05T18:31:28.813Z,2.37
2018-01-05T18:33:57.158Z,2.30
2018-01-05T18:36:24.634Z,2.55
2018-01-05T18:38:52.136Z,2.65
2018-01-05T18:41:19.763Z,2.85
2018-01-05T18:43:48.562Z,2.60
2018-01-05T18:46:16.078Z,2.90
2018-01-05T18:48:43.562Z,2.80
2018-01-05T18:51:11.045Z,3.20
2018-01-05T18:53:38.690Z,2.55
2018-01-05T18:56:06.200Z,3.40
2018-01-05T18:58:33.686Z,2.85
2018-01-05T19:01:01.166Z,2.75
2018-01-05T19:03:28.676Z,2.55
2018-01-05T19:05:56.170Z,2.80
2018-01-05T19:08:23.965Z,2.60
2018-01-05T19:13:25.307Z,3.33
2018-01-05T19:15:52.905Z,2.35
2018-01-05T19:18:20.387Z,2.50
2018-01-05T19:20:47.874Z,2.87
2018-01-05T19:23:15.390Z,3.12
2018-01-05T19:25:42.862Z,3.22
2018-01-05T19:28:10.378Z,2.75
2018-01-05T19:30:38.118Z,3.50
2018-01-05T19:33:07.182Z,3.33
2018-01-05T19:35:34.690Z,2.50
2018-01-05T19:38:02.384Z,3.08
2018-01-05T19:40:29.870Z,3.20
2018-01-05T19:42:57.443Z,3.45
2018-01-05T19:45:24.998Z,2.72
2018-01-05T19:47:52.473Z,2.30
2018-01-05T19:50:20.174Z,3.05
2018-01-05T19:52:47.743Z,3.90
2018-01-05T19:55:15.227Z,2.83
2018-01-05T19:57:42.708Z,2.85
2018-01-05T20:00:10.222Z,3.62
2018-01-05T20:02:37.713Z,3.00
2018-01-05T20:05:05.206Z,3.17
2018-01-05T20:07:33.961Z,3.22
2018-01-05T20:10:01.444Z,3.00
2018-01-05T20:12:29.242Z,5.20
2018-01-05T20:14:56.767Z,4.12
2018-01-05T20:17:24.358Z,3.30
2018-01-05T20:19:52.642Z,3.45
2018-01-05T20:22:20.936Z,4.37
2018-01-05T20:24:48.424Z,3.90
2018-01-05T20:27:16.735Z,3.80
2018-01-05T20:29:44.961Z,4.35
2018-01-05T20:32:12.511Z,4.18
2018-01-05T20:34:40.007Z,4.37
2018-01-05T20:37:07.510Z,4.25
2018-01-05T20:39:35.152Z,4.28
2018-01-05T20:42:03.443Z,4.93
2018-01-05T20:44:31.091Z,4.22
2018-01-05T20:46:59.390Z,4.10
2018-01-05T20:49:26.878Z,4.28
2018-01-05T20:51:54.413Z,3.70
2018-01-05T20:54:21.959Z,5.05
2018-01-05T20:56:49.457Z,4.43
2018-01-05T20:59:17.091Z,4.15
2018-01-05T21:01:44.642Z,4.35
2018-01-05T21:04:12.937Z,3.67
2018-01-05T21:06:40.490Z,4.90
2018-01-05T21:09:08.768Z,3.97
2018-01-05T21:11:36.437Z,4.40
2018-01-05T21:14:03.984Z,4.93
2018-01-05T21:16:32.469Z,5.00
2018-01-05T21:19:00.261Z,4.95
2018-01-05T21:21:27.845Z,4.75
2018-01-05T21:23:55.615Z,4.78
2018-01-05T21:26:23.637Z,4.60
2018-01-05T21:28:52.098Z,4.15
2018-01-05T21:31:19.764Z,4.43
2018-01-05T21:33:47.469Z,4.75
2018-01-05T21:36:15.453Z,3.70
2018-01-05T21:38:43.051Z,3.55
2018-01-05T21:41:10.622Z,3.85
2018-01-05T21:43:38.244Z,4.53
2018-01-05T21:46:05.873Z,4.55
2018-01-05T21:48:33.599Z,3.42
2018-01-05T21:51:01.842Z,4.00
2018-01-05T21:53:29.536Z,4.30
2018-01-05T21:55:57.039Z,3.37
2018-01-05T21:58:24.848Z,3.25
2018-01-05T22:00:52.527Z,3.72
2018-01-05T22:03:20.786Z,3.47
2018-01-05T22:05:49.770Z,3.08
2018-01-05T22:08:17.253Z,2.92
2018-01-05T22:10:45.534Z,3.67
2018-01-05T22:13:13.015Z,3.37
2018-01-05T22:15:40.496Z,3.50
2018-01-05T22:18:08.781Z,3.30
2018-01-05T22:20:36.254Z,3.03
2018-01-05T22:23:03.747Z,3.35
2018-01-05T22:25:31.246Z,3.15
2018-01-05T22:27:58.727Z,3.70
2018-01-05T22:30:26.214Z,3.05
2018-01-05T22:32:54.590Z,3.30
2018-01-05T22:35:22.834Z,3.60
2018-01-05T22:37:51.153Z,4.10
2018-01-05T22:40:19.434Z,2.58
2018-01-05T22:42:46.926Z,3.95
2018-01-05T22:45:14.402Z,3.20
2018-01-05T22:47:41.924Z,4.37
2018-01-05T22:50:09.682Z,3.30
2018-01-05T22:52:37.242Z,3.60
2018-01-05T22:55:04.740Z,3.53
2018-01-05T22:57:32.374Z,3.25
2018-01-05T22:59:59.869Z,2.70
2018-01-05T23:02:27.482Z,3.47
2018-01-05T23:04:54.990Z,3.12
2018-01-05T23:07:22.465Z,3.15
2018-01-05T23:09:50.074Z,3.30
2018-01-05T23:12:17.554Z,3.00
2018-01-05T23:14:46.030Z,3.60
2018-01-05T23:17:13.538Z,3.47
2018-01-05T23:19:41.027Z,4.47
2018-01-05T23:22:08.526Z,3.40
2018-01-05T23:24:36.016Z,2.67
2018-01-05T23:27:04.254Z,3.25
2018-01-05T23:29:31.754Z,2.65
2018-01-05T23:32:00.002Z,3.35
2018-01-05T23:34:27.635Z,3.20
2018-01-05T23:36:55.194Z,3.12
2018-01-05T23:39:22.915Z,3.30
2018-01-05T23:41:51.178Z,2.70
2018-01-05T23:44:19.462Z,5.35
2018-01-05T23:46:47.722Z,3.08
2018-01-05T23:49:15.194Z,2.87
2018-01-05T23:51:43.476Z,3.10
2018-01-05T23:54:11.724Z,2.90
2018-01-05T23:56:39.210Z,2.83
2018-01-05T23:59:07.886Z,4.55
